Yami!tiii — A8XN9 — position and weather

sailwx.info

Track history (hours):
 
Tides and Currents Weather Stations Pressure Air Temp Water Temp Dewpoint Dewpoint Depression Visibility Wind Speed Wind Dir Waves Ship Positions

Yami!tiii

Last reported at 2018-May-23 18:02 UTC. Time now 2018-Jun-22 01:28 UTC.
Position N 18°12' E 066°11'.
Warning: this ship's position is 29 days out of date.

Length 228 m; draft 8.5 m.

Type: Ship. MMSI: 635961366.

Date/timePositionNaut miles runAvg speedWind from/ knotsBaromVisibWave heightAir tempDewpointWater temp
2018-May-23 18:02N 18°12' E 066°11'112.7
2018-May-23 17:59N 18°12' E 066°10'2813.0
2018-May-23 15:52N 18°31' E 065°49'513.2
2018-May-23 15:29N 18°35' E 065°46'4313.2
2018-May-23 12:14N 19°05' E 065°13'613.3
2018-May-23 11:47N 19°09' E 065°09'413.4
2018-May-23 11:30N 19°12' E 065°06'10213.3
2018-May-23 03:46N 20°23' E 063°48'512.2
2018-May-23 03:23N 20°27' E 063°44'1412.2
2018-May-23 02:14N 20°36' E 063°33'3012.4
2018-May-22 23:48N 20°58' E 063°11'412.4
2018-May-22 23:30N 21°00' E 063°08'8412.9
2018-May-22 17:03N 21°58' E 062°03'213.3
2018-May-22 16:56N 21°60' E 062°02'813.2
2018-May-22 16:19N 22°05' E 061°56'  
Track history (hours):
 
Tides and Currents Weather Stations Pressure Air Temp Water Temp Dewpoint Dewpoint Depression Visibility Wind Speed Wind Dir Waves Ship Positions

Yami!tiii

Last reported at 2018-May-23 18:02 UTC. Time now 2018-Jun-22 01:28 UTC.
Position N 18°12' E 066°11'.
Warning: this ship's position is 29 days out of date.

Length 228 m; draft 8.5 m.

Type: Ship. MMSI: 635961366.

Date/timePositionNaut miles runAvg speedWind from/ knotsBaromVisibWave heightAir tempDewpointWater temp
2018-May-23 18:02N 18°12' E 066°11'112.7
2018-May-23 17:59N 18°12' E 066°10'2813.0
2018-May-23 15:52N 18°31' E 065°49'513.2
2018-May-23 15:29N 18°35' E 065°46'4313.2
2018-May-23 12:14N 19°05' E 065°13'613.3
2018-May-23 11:47N 19°09' E 065°09'413.4
2018-May-23 11:30N 19°12' E 065°06'10213.3
2018-May-23 03:46N 20°23' E 063°48'512.2
2018-May-23 03:23N 20°27' E 063°44'1412.2
2018-May-23 02:14N 20°36' E 063°33'3012.4
2018-May-22 23:48N 20°58' E 063°11'412.4
2018-May-22 23:30N 21°00' E 063°08'8412.9
2018-May-22 17:03N 21°58' E 062°03'213.3
2018-May-22 16:56N 21°60' E 062°02'813.2
2018-May-22 16:19N 22°05' E 061°56'  

Dump ship's entire track history